createdAt,value
2023-03-29T06:22:22.388Z,5.10
2023-03-29T06:24:52.141Z,5.10
2023-03-29T06:27:29.339Z,5.30
2023-03-29T06:29:57.411Z,5.50
2023-03-29T06:32:24.390Z,5.70
2023-03-29T06:34:57.314Z,5.90
2023-03-29T06:37:49.896Z,6.10
2023-03-29T06:40:31.396Z,6.20
2023-03-29T06:42:59.382Z,6.30
2023-03-29T06:45:29.435Z,6.50
2023-03-29T06:47:56.626Z,6.60
2023-03-29T06:50:24.886Z,6.80
2023-03-29T06:52:57.881Z,6.90
2023-03-29T06:55:24.887Z,7.00
2023-03-29T06:57:53.741Z,7.10
2023-03-29T07:00:28.092Z,7.20
2023-03-29T07:03:27.902Z,7.30
2023-03-29T07:06:02.708Z,7.40
2023-03-29T07:08:35.019Z,7.40
2023-03-29T07:11:05.410Z,7.50
2023-03-29T07:13:58.342Z,7.50
2023-03-29T07:16:27.305Z,7.50
2023-03-29T07:19:08.820Z,7.60
2023-03-29T07:21:54.486Z,7.70
2023-03-29T07:24:26.829Z,7.80
2023-03-29T07:27:03.818Z,8.00
2023-03-29T07:29:33.807Z,8.20
2023-03-29T07:32:00.887Z,8.50
2023-03-29T07:34:42.937Z,8.70
2023-03-29T07:37:17.162Z,8.90
2023-03-29T07:39:45.527Z,9.20
2023-03-29T07:42:32.456Z,9.60
2023-03-29T07:45:04.020Z,10.10
2023-03-29T07:47:37.217Z,11.30
2023-03-29T07:50:04.791Z,12.10
2023-03-29T07:52:32.759Z,11.80
2023-03-29T07:54:59.685Z,11.40
2023-03-29T07:57:35.492Z,11.20
2023-03-29T08:00:15.061Z,11.20
2023-03-29T08:02:49.829Z,11.30
2023-03-29T08:05:29.188Z,11.40
2023-03-29T08:08:10.271Z,11.40
2023-03-29T08:10:47.150Z,11.60
2023-03-29T08:13:29.316Z,11.70
2023-03-29T08:16:14.878Z,11.50
2023-03-29T08:18:49.537Z,11.40
2023-03-29T08:21:16.735Z,11.30
2023-03-29T08:23:47.092Z,11.10
2023-03-29T08:26:18.664Z,11.10
2023-03-29T08:28:47.074Z,11.10
2023-03-29T08:31:14.909Z,11.30
2023-03-29T08:33:44.495Z,11.50
2023-03-29T08:36:29.775Z,11.50
2023-03-29T08:39:02.128Z,11.50
2023-03-29T08:41:38.502Z,11.40
2023-03-29T08:44:48.096Z,11.30
2023-03-29T08:47:55.824Z,11.30
2023-03-29T08:50:40.297Z,11.60
2023-03-29T08:53:20.536Z,11.80
2023-03-29T08:56:13.612Z,12.00
2023-03-29T08:58:47.956Z,12.30
2023-03-29T09:01:15.024Z,12.50
2023-03-29T09:04:14.773Z,12.70
2023-03-29T09:07:03.944Z,12.70
2023-03-29T09:09:38.360Z,12.40
2023-03-29T09:12:16.577Z,12.20
2023-03-29T09:15:13.438Z,12.30
2023-03-29T09:18:02.440Z,12.50
2023-03-29T09:20:50.478Z,12.70
2023-03-29T09:23:52.022Z,12.90
2023-03-29T09:26:54.676Z,12.80
2023-03-29T09:30:07.638Z,13.10
2023-03-29T09:32:53.772Z,13.70
2023-03-29T09:35:43.824Z,14.20
2023-03-29T09:38:13.968Z,14.60
2023-03-29T09:40:49.739Z,14.90
2023-03-29T09:43:36.153Z,15.30
2023-03-29T09:46:16.145Z,15.10
2023-03-29T09:48:44.820Z,15.00
2023-03-29T09:51:13.526Z,14.80
2023-03-29T09:53:40.886Z,14.80
2023-03-29T09:56:32.384Z,14.70
2023-03-29T09:59:11.612Z,14.80
2023-03-29T10:01:41.642Z,15.30
2023-03-29T10:04:10.413Z,15.70
2023-03-29T10:06:51.411Z,15.80
2023-03-29T10:09:24.247Z,16.00
2023-03-29T10:12:02.030Z,15.90
2023-03-29T10:14:41.195Z,15.50
2023-03-29T10:17:24.726Z,15.50
2023-03-29T10:19:55.647Z,15.60
2023-03-29T10:22:46.120Z,15.80
2023-03-29T10:25:15.633Z,15.90
2023-03-29T10:27:44.912Z,16.00
2023-03-29T10:30:23.838Z,16.10
2023-03-29T10:33:00.236Z,17.20
2023-03-29T10:35:34.579Z,18.00
2023-03-29T10:38:05.563Z,19.00
2023-03-29T10:40:34.508Z,19.90
2023-03-29T10:43:12.311Z,20.50
2023-03-29T10:45:40.308Z,20.80
2023-03-29T10:48:12.853Z,21.20
2023-03-29T10:50:39.765Z,22.70
2023-03-29T10:53:20.121Z,23.00
2023-03-29T10:56:09.289Z,23.30
2023-03-29T10:58:47.706Z,22.30
2023-03-29T11:01:42.985Z,21.40
2023-03-29T11:04:12.883Z,20.80
2023-03-29T11:06:56.041Z,20.10
2023-03-29T11:09:34.956Z,19.60
2023-03-29T11:12:18.772Z,19.50
2023-03-29T11:15:07.830Z,20.00
2023-03-29T11:18:04.990Z,20.60
2023-03-29T11:21:06.706Z,21.00
2023-03-29T11:23:59.422Z,22.30
2023-03-29T11:27:04.777Z,21.80
2023-03-29T11:29:41.065Z,20.80
2023-03-29T11:32:34.651Z,20.20
2023-03-29T11:35:35.333Z,19.50
2023-03-29T11:38:20.719Z,18.60
2023-03-29T11:45:40.192Z,17.80
2023-03-29T11:48:15.023Z,17.30
2023-03-29T11:51:10.684Z,17.10
2023-03-29T11:53:56.557Z,16.60
2023-03-29T11:56:34.726Z,16.20
2023-03-29T11:59:11.599Z,16.50
2023-03-29T12:01:46.844Z,17.00
2023-03-29T12:04:22.933Z,17.80
2023-03-29T12:07:04.542Z,18.30
2023-03-29T12:10:01.673Z,18.70
2023-03-29T12:12:40.357Z,19.80
2023-03-29T12:15:20.013Z,20.80
2023-03-29T12:18:02.495Z,20.50
2023-03-29T12:20:34.381Z,20.40
2023-03-29T12:23:02.731Z,21.30
2023-03-29T12:26:02.383Z,21.90
2023-03-29T12:29:06.751Z,21.10
2023-03-29T12:31:44.590Z,20.50
2023-03-29T12:34:34.108Z,20.20
2023-03-29T12:37:37.918Z,19.90
2023-03-29T12:40:47.963Z,20.00
2023-03-29T12:43:37.985Z,20.30
2023-03-29T12:46:33.221Z,20.60
2023-03-29T12:49:13.322Z,20.70
2023-03-29T12:51:41.867Z,20.90
2023-03-29T12:54:21.104Z,21.00
2023-03-29T12:57:00.167Z,20.80
2023-03-29T12:59:38.133Z,20.60
2023-03-29T13:02:17.644Z,20.10
2023-03-29T13:04:54.618Z,20.00
2023-03-29T13:07:26.367Z,19.80
2023-03-29T13:10:04.821Z,19.70
2023-03-29T13:12:44.643Z,19.50
2023-03-29T13:15:14.391Z,19.70
2023-03-29T13:18:09.614Z,19.60
2023-03-29T13:20:40.632Z,19.40
2023-03-29T13:23:28.309Z,19.00
2023-03-29T13:26:25.264Z,19.00
2023-03-29T13:29:38.214Z,20.40
2023-03-29T13:32:37.740Z,19.90
2023-03-29T13:35:18.866Z,19.50
2023-03-29T13:38:05.142Z,19.60
2023-03-29T13:40:41.802Z,19.90
2023-03-29T13:43:10.382Z,20.20
2023-03-29T13:45:38.843Z,20.80
2023-03-29T13:48:28.974Z,20.90
2023-03-29T13:51:02.122Z,21.40
2023-03-29T13:53:38.010Z,21.70
2023-03-29T13:56:10.525Z,21.20
2023-03-29T13:58:51.457Z,20.50
2023-03-29T14:01:46.684Z,19.30
2023-03-29T14:04:20.096Z,18.50
2023-03-29T14:06:51.743Z,18.40
2023-03-29T14:09:20.172Z,18.40
2023-03-29T14:11:47.947Z,18.50
2023-03-29T14:14:15.110Z,18.30
2023-03-29T14:16:42.282Z,18.50
2023-03-29T14:19:16.594Z,18.60
2023-03-29T14:21:44.357Z,18.50
2023-03-29T14:24:16.620Z,18.50
2023-03-29T14:26:47.424Z,18.20
2023-03-29T14:29:14.656Z,17.80
2023-03-29T14:31:42.381Z,17.40
2023-03-29T14:34:14.570Z,17.10
2023-03-29T14:36:43.843Z,16.90
2023-03-29T14:39:18.342Z,16.90
2023-03-29T14:41:53.902Z,16.70
2023-03-29T14:44:22.492Z,16.50
2023-03-29T14:46:49.224Z,16.10
2023-03-29T14:49:17.919Z,15.80
2023-03-29T14:51:46.251Z,15.50
2023-03-29T14:54:26.668Z,15.30
2023-03-29T14:56:53.851Z,15.10
2023-03-29T14:59:40.850Z,14.90
2023-03-29T15:02:23.723Z,14.70
2023-03-29T15:04:56.552Z,14.70
2023-03-29T15:07:25.112Z,14.70
2023-03-29T15:09:51.964Z,14.60
2023-03-29T15:12:18.936Z,14.50
2023-03-29T15:14:46.084Z,14.30
2023-03-29T15:17:49.428Z,14.20
2023-03-29T15:20:26.105Z,14.00
2023-03-29T15:23:01.333Z,13.90
2023-03-29T15:25:33.443Z,13.80
2023-03-29T15:28:01.678Z,13.80
2023-03-29T15:30:36.564Z,13.80
2023-03-29T15:33:34.142Z,13.80
2023-03-29T15:36:01.743Z,13.70
2023-03-29T15:38:36.719Z,13.40
2023-03-29T15:41:10.557Z,13.30
2023-03-29T15:43:37.483Z,13.20
2023-03-29T15:46:04.648Z,13.20
2023-03-29T15:48:33.423Z,13.10
2023-03-29T15:51:03.792Z,13.00
2023-03-29T15:53:32.548Z,13.10
2023-03-29T15:56:02.537Z,13.00
2023-03-29T15:58:32.092Z,13.00
2023-03-29T16:01:34.091Z,12.90
2023-03-29T16:04:02.933Z,12.80
2023-03-29T16:06:29.995Z,12.70
2023-03-29T16:08:57.458Z,12.60
2023-03-29T16:11:24.530Z,12.60
2023-03-29T16:13:51.452Z,12.50
2023-03-29T16:16:18.246Z,12.50
2023-03-29T16:18:44.935Z,12.50
2023-03-29T16:21:18.174Z,12.50
2023-03-29T16:23:45.940Z,12.50
2023-03-29T16:26:14.359Z,12.60
2023-03-29T16:28:41.676Z,12.60
2023-03-29T16:31:12.829Z,12.70
2023-03-29T16:33:40.992Z,12.80
2023-03-29T16:36:08.588Z,12.80
2023-03-29T16:38:35.445Z,12.80
2023-03-29T16:41:02.525Z,12.80
2023-03-29T16:43:29.323Z,12.80
2023-03-29T16:45:56.922Z,12.70
2023-03-29T16:48:23.796Z,12.70
2023-03-29T16:50:50.716Z,12.70
2023-03-29T16:53:21.641Z,12.70
2023-03-29T16:55:48.714Z,12.60
2023-03-29T16:58:15.609Z,12.50
2023-03-29T17:00:43.958Z,12.40
2023-03-29T17:03:12.712Z,12.30
2023-03-29T17:05:42.190Z,12.30
2023-03-29T17:08:10.048Z,12.20
2023-03-29T17:10:39.544Z,12.10
2023-03-29T17:13:06.626Z,12.10
2023-03-29T17:15:33.667Z,12.00
2023-03-29T17:18:00.506Z,12.00
2023-03-29T17:20:27.279Z,12.00
2023-03-29T17:22:55.971Z,11.90
2023-03-29T17:25:23.631Z,11.80
2023-03-29T17:27:50.929Z,11.70
2023-03-29T17:30:17.688Z,11.60
2023-03-29T17:32:45.589Z,11.60
2023-03-29T17:35:13.200Z,11.50
2023-03-29T17:37:40.196Z,11.50
2023-03-29T17:40:17.838Z,11.50
2023-03-29T17:42:48.712Z,11.50
2023-03-29T17:45:16.207Z,11.50
2023-03-29T17:47:42.912Z,11.50
2023-03-29T17:50:11.998Z,11.50
2023-03-29T17:52:39.651Z,11.50
2023-03-29T17:55:13.214Z,11.50
2023-03-29T17:57:41.261Z,11.50
2023-03-29T18:00:12.067Z,11.40
2023-03-29T18:02:39.710Z,11.40
2023-03-29T18:05:08.237Z,11.40
2023-03-29T18:07:40.487Z,11.20
2023-03-29T18:10:08.156Z,11.10
2023-03-29T18:12:34.884Z,11.10
2023-03-29T18:15:01.716Z,11.10
2023-03-29T18:17:28.709Z,11.00
2023-03-29T18:19:55.745Z,11.00
2023-03-29T18:22:24.015Z,10.90
2023-03-29T18:24:51.098Z,10.90
2023-03-29T18:27:18.370Z,10.90
2023-03-29T18:29:45.310Z,10.80
2023-03-29T18:32:12.253Z,10.80
2023-03-29T18:34:39.481Z,10.80
2023-03-29T18:37:06.407Z,10.80
2023-03-29T18:39:35.822Z,10.80
2023-03-29T18:42:02.707Z,10.80
2023-03-29T18:44:29.545Z,10.70
2023-03-29T18:46:56.397Z,10.60
